createdAt,value
2023-01-13T12:36:37.172Z,987.94
2023-01-13T12:37:38.036Z,987.96
2023-01-13T12:38:38.915Z,987.91
2023-01-13T12:39:39.810Z,987.94
2023-01-13T12:40:40.695Z,987.91
2023-01-13T12:41:41.595Z,987.96
2023-01-13T12:42:42.476Z,988.01
2023-01-13T12:43:43.373Z,987.96
2023-01-13T12:44:44.301Z,987.96
2023-01-13T12:45:45.434Z,988.04
2023-01-13T12:46:46.441Z,987.99
2023-01-13T12:47:47.346Z,987.99
2023-01-13T12:48:48.242Z,987.95
2023-01-13T12:49:49.139Z,988.02
2023-01-13T12:50:50.017Z,988.05
2023-01-13T12:51:51.178Z,988.05
2023-01-13T12:52:52.370Z,988.14
2023-01-13T12:53:53.264Z,988.12
2023-01-13T12:54:54.114Z,988.18
2023-01-13T12:55:55.006Z,988.19
2023-01-13T12:56:55.899Z,988.11
2023-01-13T12:57:56.775Z,988.07
2023-01-13T12:59:00.109Z,988.17
2023-01-13T12:59:57.808Z,988.16
2023-01-13T13:00:59.284Z,988.24
2023-01-13T13:02:01.082Z,988.26
2023-01-13T13:03:02.367Z,988.23
2023-01-13T13:04:03.263Z,988.25
2023-01-13T13:05:04.111Z,988.25
2023-01-13T13:06:05.003Z,988.25
2023-01-13T13:07:06.106Z,988.25
2023-01-13T13:08:06.989Z,988.27
2023-01-13T13:09:07.880Z,988.23
2023-01-13T13:10:08.782Z,988.14
2023-01-13T13:11:09.965Z,988.13
2023-01-13T13:12:10.932Z,988.09
2023-01-13T13:13:11.888Z,988.08
2023-01-13T13:14:12.853Z,988.09
2023-01-13T13:15:14.094Z,988.06
2023-01-13T13:16:15.421Z,988.07
2023-01-13T13:17:16.985Z,988.07
2023-01-13T13:18:18.263Z,988.07
2023-01-13T13:19:19.220Z,988.08
2023-01-13T13:20:20.162Z,988
2023-01-13T13:21:21.053Z,988.07
2023-01-13T13:22:22.103Z,988.03
2023-01-13T13:23:23.066Z,987.98
2023-01-13T13:24:23.956Z,987.96
2023-01-13T13:25:24.875Z,987.91
2023-01-13T13:26:25.777Z,987.92
2023-01-13T13:27:26.668Z,987.88
2023-01-13T13:28:27.559Z,987.88
2023-01-13T13:29:28.453Z,987.85
2023-01-13T13:30:29.875Z,987.9
2023-01-13T13:31:30.837Z,987.85
2023-01-13T13:32:31.716Z,987.88
2023-01-13T13:33:32.603Z,987.85
2023-01-13T13:34:33.489Z,987.82
2023-01-13T13:35:34.414Z,987.88
2023-01-13T13:36:35.423Z,987.74
2023-01-13T13:37:36.482Z,987.9
2023-01-13T13:38:37.359Z,987.75
2023-01-13T13:39:40.385Z,987.9
2023-01-13T13:40:41.287Z,987.91
2023-01-13T13:41:42.768Z,987.94
2023-01-13T13:42:43.662Z,987.93
2023-01-13T13:43:44.519Z,987.87
2023-01-13T13:44:45.416Z,987.9
2023-01-13T13:45:46.803Z,987.91
2023-01-13T13:46:47.992Z,987.87
2023-01-13T13:47:49.014Z,987.99
2023-01-13T13:48:49.904Z,988.15
2023-01-13T13:49:50.807Z,987.9
2023-01-13T13:50:51.693Z,987.92
2023-01-13T13:51:52.956Z,987.93
2023-01-13T13:52:54.059Z,987.97
2023-01-13T13:53:54.960Z,988.02
2023-01-13T13:54:55.859Z,988.03
2023-01-13T13:55:56.789Z,987.99
2023-01-13T13:56:57.703Z,988.07
2023-01-13T13:57:58.628Z,988.12
2023-01-13T13:58:59.510Z,988.07
2023-01-13T14:00:00.386Z,988.14
2023-01-13T14:01:02.008Z,988.13
2023-01-13T14:02:03.652Z,988.11
2023-01-13T14:03:04.664Z,988.22
2023-01-13T14:04:05.548Z,988.34
2023-01-13T14:05:06.529Z,988.32
2023-01-13T14:06:07.592Z,988.42
2023-01-13T14:07:08.586Z,988.39
2023-01-13T14:08:09.513Z,988.41
2023-01-13T14:09:10.402Z,988.4
2023-01-13T14:10:11.286Z,988.45
2023-01-13T14:11:12.125Z,988.43
2023-01-13T14:12:12.978Z,988.48
2023-01-13T14:13:13.808Z,988.48
2023-01-13T14:14:14.667Z,988.46
2023-01-13T14:15:15.504Z,988.42
2023-01-13T14:16:16.366Z,988.45
2023-01-13T14:17:17.179Z,988.5
2023-01-13T14:18:18.061Z,988.55
2023-01-13T14:19:18.930Z,988.72
2023-01-13T14:20:19.797Z,988.73
2023-01-13T14:21:20.643Z,988.68
2023-01-13T14:22:21.483Z,988.74
2023-01-13T14:23:22.439Z,988.68
2023-01-13T14:24:23.287Z,988.72
2023-01-13T14:25:24.160Z,988.67
2023-01-13T14:26:25.058Z,988.69
2023-01-13T14:27:25.937Z,988.71
2023-01-13T14:28:26.860Z,988.82
2023-01-13T14:29:27.711Z,988.76
2023-01-13T14:30:28.608Z,988.81
2023-01-13T14:31:29.717Z,988.94
2023-01-13T14:32:30.625Z,988.88
2023-01-13T14:33:31.495Z,989.01
2023-01-13T14:34:33.631Z,989
2023-01-13T14:35:34.470Z,989.02
2023-01-13T14:36:35.364Z,988.94
2023-01-13T14:37:36.403Z,989.02
2023-01-13T14:38:37.405Z,989.01
2023-01-13T14:39:39.382Z,988.98
2023-01-13T14:40:40.442Z,988.96
2023-01-13T14:41:41.450Z,989.01
2023-01-13T14:42:42.340Z,989.06
2023-01-13T14:43:43.223Z,989.03
2023-01-13T14:44:44.092Z,988.92
2023-01-13T14:45:45.025Z,988.88
2023-01-13T14:46:45.905Z,988.87
2023-01-13T14:47:46.819Z,988.92
2023-01-13T14:48:47.730Z,988.92
2023-01-13T14:49:48.578Z,988.9
2023-01-13T14:50:49.454Z,988.91
2023-01-13T14:51:50.300Z,988.94
2023-01-13T14:52:51.235Z,988.9
2023-01-13T14:53:52.369Z,988.91
2023-01-13T14:54:53.388Z,988.92
2023-01-13T14:55:54.243Z,988.98
2023-01-13T14:56:55.198Z,989.03
2023-01-13T14:57:56.079Z,989.1
2023-01-13T14:58:56.956Z,989.18
2023-01-13T14:59:57.829Z,989.13
2023-01-13T15:00:58.796Z,989.18
2023-01-13T15:01:59.865Z,989.22
2023-01-13T15:03:00.933Z,989.3
2023-01-13T15:04:01.913Z,989.32
2023-01-13T15:05:02.766Z,989.38
2023-01-13T15:06:03.609Z,989.41
2023-01-13T15:07:04.494Z,989.48
2023-01-13T15:08:05.462Z,989.39
2023-01-13T15:09:06.418Z,989.4
2023-01-13T15:10:07.234Z,989.4
2023-01-13T15:11:08.579Z,989.49
2023-01-13T15:12:09.420Z,989.53
2023-01-13T15:13:10.272Z,989.42
2023-01-13T15:14:11.153Z,989.55
2023-01-13T15:15:12.060Z,989.56
2023-01-13T15:16:13.023Z,989.48
2023-01-13T15:17:13.977Z,989.44
2023-01-13T15:18:14.829Z,989.42
2023-01-13T15:19:15.702Z,989.47
2023-01-13T15:20:16.651Z,989.41
2023-01-13T15:21:17.607Z,989.48
2023-01-13T15:22:18.485Z,989.44
2023-01-13T15:23:19.584Z,989.49
2023-01-13T15:24:20.553Z,989.5
2023-01-13T15:25:21.484Z,989.54
2023-01-13T15:26:22.393Z,989.49
2023-01-13T15:27:23.282Z,989.49
2023-01-13T15:28:24.137Z,989.5
2023-01-13T15:29:25.181Z,989.48
2023-01-13T15:30:26.033Z,989.52
2023-01-13T15:31:27.213Z,989.52
2023-01-13T15:32:28.173Z,989.49
2023-01-13T15:33:29.066Z,989.46
2023-01-13T15:34:29.941Z,989.49
2023-01-13T15:35:30.859Z,989.54
2023-01-13T15:36:31.780Z,989.5
2023-01-13T15:37:32.635Z,989.45
2023-01-13T15:38:33.499Z,989.48
2023-01-13T15:39:34.477Z,989.54
2023-01-13T15:40:35.356Z,989.57
2023-01-13T15:41:36.199Z,989.57
2023-01-13T15:42:37.070Z,989.64
2023-01-13T15:43:37.897Z,989.66
2023-01-13T15:44:38.751Z,989.65
2023-01-13T15:45:39.578Z,989.68
2023-01-13T15:46:40.711Z,989.64
2023-01-13T15:47:41.699Z,989.67
2023-01-13T15:48:42.709Z,989.61
2023-01-13T15:49:43.559Z,989.64
2023-01-13T15:50:44.679Z,989.72
2023-01-13T15:51:45.752Z,989.72
2023-01-13T15:52:47.058Z,989.75
2023-01-13T15:53:48.079Z,989.76
2023-01-13T15:54:49.004Z,989.77
